Metar Cercanos

 

LEPA - Palma De Mallorc, Spain
Distance from station: ONO 38km
Actualización: 17/08/2018 07:30
Few Clouds
Few Clouds
 Viento del ENE
Viento: ENE 7 km/h
Temperatura: 21°C
Rocío: 19°C
Humedad: 88%
Barómetro: 1015 hPa
Clouds: Few Clouds
Visibility: 10 km
Cloud details: Few Clouds 914 m
2018/08/17 05:30 LEPA 170530Z 07004KT 9999 FEW030TCU 21/19 Q1015 NOSIG
LEMH - Mahon/Menorca Is, Spain
Distance from station: ENE 105km
Actualización: 17/08/2018 07:30
Few Clouds
Few Clouds
 Viento del N
Viento: N 7 km/h
Temperatura: 21°C
Rocío: 19°C
Humedad: 88%
Barómetro: 1015 hPa
Clouds: Few Clouds
Visibility: 10 km
Cloud details: Few Clouds 610 m
2018/08/17 05:30 LEMH 170530Z 36004KT 9999 FEW020 21/19 Q1015
 
LEIB - Ibiza/Es Codola, Spain
Distance from station: OSO 165km
Actualización: 17/08/2018 07:30
Parcialmente nuboso
Parcialmente nuboso
 Viento del N
Viento: N 6 km/h
Temperatura: 23°C
Rocío: 20°C
Humedad: 83%
Barómetro: 1015 hPa
Clouds: Parcialmente nuboso
Visibility: 10 km
Cloud details: Few Clouds 549 m
Parcialmente nuboso 792 m
2018/08/17 05:30 LEIB 170530Z 35003KT 9999 FEW018 SCT026 23/20 Q1015 NOSIG
LEBL - Barcelona Airpor, Spain
Distance from station: NNO 225km
Actualización: 17/08/2018 07:30
Few Clouds
Few Clouds
 Viento del NNO
Viento: NNO 15 km/h, Racha: 33 km/h
Temperatura: 23°C
Rocío: 18°C
Humedad: 74%
Barómetro: 1015 hPa
Clouds: Few Clouds
Visibility: 10 km
Cloud details: Few Clouds 762 m
2018/08/17 05:30 LEBL 170530Z 33008G18KT 310V050 9999 FEW025 23/18 Q1015 NOSIG
 
LEVC - Valencia (civ/Mi, Spain
Distance from station: NO 188km
Actualización: 17/08/2018 07:30
Parcialmente nuboso
Parcialmente nuboso
 Viento del NO
Viento: NO 9 km/h
Temperatura: 23°C
Rocío: 19°C
Humedad: 78%
Barómetro: 1015 hPa
Clouds: Parcialmente nuboso
Visibility: 10 km
Cloud details: Few Clouds 914 m
Parcialmente nuboso 1829 m
2018/08/17 05:30 LEVC 170530Z 31005KT 9999 FEW030TCU SCT060 23/19 Q1015 NOSIG
LEGE - Gerona/Costa Bra, Spain
Distance from station: N 276km
Actualización: 17/08/2018 07:30
Despejado
Despejado
 Viento del NNE
Viento: NNE 6 km/h
Temperatura: 18°C
Rocío: 18°C
Humedad: 100%
Barómetro: 1016 hPa
Resumen: Despejado
Visibility: greater than 10 km
2018/08/17 05:30 LEGE 170530Z 03003KT CAVOK 18/18 Q1016
 
LEAL - Alicante/El Alte, Spain
Distance from station: OSO 344km
Actualización: 17/08/2018 07:30
Few Clouds
Few Clouds
 Viento del OSO
Viento: OSO 7 km/h
Temperatura: 23°C
Rocío: 19°C
Humedad: 78%
Barómetro: 1015 hPa
Clouds: Few Clouds
Visibility: 10 km
Cloud details: Few Clouds 671 m
2018/08/17 05:30 LEAL 170530Z 25004KT 210V280 9999 FEW022TCU 23/19 Q1015 NOSIG
LEAM - Almeria Airport, Spain
Distance from station: SSO 56km
Actualización: 17/08/2018 07:30
Despejado
Despejado
 Viento del E
Viento: E 6 km/h
Temperatura: 23°C
Rocío: 20°C
Humedad: 83%
Barómetro: 1015 hPa
Resumen: Despejado
Visibility: greater than 10 km
2018/08/17 05:30 LEAM 170530Z 08003KT CAVOK 23/20 Q1015
 
LEZG - Zaragoza (mil/Ci, Spain
Distance from station: NO 431km
Actualización: 17/08/2018 07:30
Few Clouds
Few Clouds
 Viento del O
Viento: O 24 km/h
Temperatura: 19°C
Rocío: 15°C
Humedad: 78%
Clouds: Few Clouds
Visibility: 10 km
Cloud details: Few Clouds 1524 m
2018/08/17 05:30 LEZG 170530Z 28013KT 9999 FEW050 19/15 1018
LEMD - Madrid/Barajas, Spain
Distance from station: ONO 234km
Actualización: 17/08/2018 07:30
Despejado
Despejado
 Viento del NE
Viento: NE 6 km/h
Temperatura: 19°C
Rocío: 12°C
Humedad: 64%
Barómetro: 1018 hPa
Resumen: Despejado
Visibility: greater than 10 km
2018/08/17 05:30 LEMD 170530Z 05003KT 020V080 CAVOK 19/12 Q1018 NOSIG
 
LEGR - Granada Airport, Spain
Distance from station: OSO 62km
Actualización: 17/08/2018 07:30
Few Clouds
Few Clouds
 Viento del SO
Viento: SO 7 km/h
Temperatura: 17°C
Rocío: 14°C
Humedad: 83%
Barómetro: 1018 hPa
Clouds: Few Clouds
Visibility: 10 km
Cloud details: Few Clouds 3048 m
2018/08/17 05:30 LEGR 170530Z 23004KT 9999 FEW100 17/14 Q1018
LEMG - Malaga (civ/Mil), Spain
Distance from station: OSO 227km
Actualización: 17/08/2018 07:30
Despejado
Despejado
 Viento del ONO
Viento: ONO 17 km/h
Temperatura: 23°C
Rocío: 18°C
Humedad: 74%
Barómetro: 1015 hPa
Resumen: Despejado
Visibility: greater than 10 km
2018/08/17 05:30 LEMG 170530Z 29009KT CAVOK 23/18 Q1015 NOSIG
 
LEZL - Sevilla (civ/Mil, Spain
Distance from station: S 318km
Actualización: 17/08/2018 07:30
Despejado
Despejado
 Viento del SSO
Viento: SSO 6 km/h
Temperatura: 20°C
Rocío: 17°C
Humedad: 83%
Barómetro: 1015 hPa
Resumen: Despejado
Visibility: greater than 10 km
2018/08/17 05:30 LEZL 170530Z 21003KT 170V240 CAVOK 20/17 Q1015 NOSIG
LEVT - Vitoria, Spain
Distance from station: NO 226km
Actualización: 17/08/2018 07:30
Muy nuboso
Muy nuboso
 Viento del calm
Viento: Calma
Temperatura: 13°C
Rocío: 13°C
Humedad: 100%
Barómetro: 1022 hPa
Clouds: Muy nuboso
Visibility: 10 km
Cloud details: Few Clouds 457 m
Muy nuboso 1219 m
2018/08/17 05:30 LEVT 170530Z 00000KT 9999 FEW015 BKN040 13/13 Q1022
 
LEBB - Bilbao/Sondica, Spain
Distance from station: NNO 235km
Actualización: 17/08/2018 07:43
Lluvia débil, Muy nuboso
Lluvia débil, Muy nuboso
 Viento del NNE
Viento: NNE 20 km/h
Temperatura: 18°C
Rocío: 18°C
Humedad: 100%
Barómetro: 1021 hPa
Resumen: Lluvia débil
Clouds: Muy nuboso
Visibility: 4 km
Cloud details: Parcialmente nuboso 152 m
Muy nuboso 518 m
Muy nuboso 762 m
2018/08/17 05:43 LEBB 170543Z 02011KT 340V070 3500 -RA SCT005 BKN017 BKN025 18/18 Q1021 TEMPO 1500 RA BKN005
LESO - San Sebastian/Fu, Spain
Distance from station: N 231km
Actualización: 17/08/2018 07:37
Rain drizzle, Muy nuboso
Rain drizzle, Muy nuboso
 Viento del varies
Viento: varies 6 km/h
Temperatura: 20°C
Rocío: 19°C
Humedad: 94%
Barómetro: 1020 hPa
Resumen: Rain Drizzle
Clouds: Muy nuboso
Visibility: 4 km
Cloud details: Parcialmente nuboso 244 m
Muy nuboso 427 m
Muy nuboso 610 m
2018/08/17 05:37 LESO 170537Z VRB03KT 4000 RADZ SCT008 BKN014 BKN020 20/19 Q1020
 
LEVD - Valladolid(Mil/C, Spain
Distance from station: ONO 239km
Actualización: 17/08/2018 07:30
Despejado
Despejado
 Viento del NNE
Viento: NNE 19 km/h
Temperatura: 14°C
Rocío: 11°C
Humedad: 82%
Barómetro: 1021 hPa
Resumen: Despejado
Visibility: greater than 10 km
2018/08/17 05:30 LEVD 170530Z 03010KT CAVOK 14/11 Q1021
LESA - Salamanca (civ/M, Spain
Distance from station: ONO 349km
Actualización: 17/08/2018 07:30
Despejado
Despejado
 Viento del NE
Viento: NE 11 km/h
Temperatura: 14°C
Rocío: 11°C
Humedad: 82%
Barómetro: 1020 hPa
Resumen: Despejado
Visibility: greater than 10 km
2018/08/17 05:30 LESA 170530Z 05006KT CAVOK 14/11 Q1020
 
LEXJ - Santander/Paraya, Spain
Distance from station: NNO 247km
Actualización: 17/08/2018 07:30
Lluvia débil, Muy nuboso
Lluvia débil, Muy nuboso
 Viento del E
Viento: E 13 km/h
Temperatura: 18°C
Rocío: 18°C
Humedad: 100%
Barómetro: 1021 hPa
Resumen: Lluvia débil
Clouds: Muy nuboso
Visibility: 10 km
Cloud details: Parcialmente nuboso 579 m
Muy nuboso 914 m
2018/08/17 05:30 LEXJ 170530Z 08007KT 030V130 9999 -RA SCT019 BKN030 18/18 Q1021
LEAS - Asturias/Aviles, Spain
Distance from station: NO 214km
Actualización: 17/08/2018 07:30
Lluvia débil, Drizzle, Muy nuboso
Lluvia débil, Drizzle, Muy nuboso
 Viento del varies
Viento: varies 6 km/h
Temperatura: 16°C
Rocío: 16°C
Humedad: 100%
Barómetro: 1023 hPa
Resumen: Lluvia débil, Drizzle
Clouds: Muy nuboso
Visibility: 4 km
Cloud details: Parcialmente nuboso 91 m
Muy nuboso 274 m
2018/08/17 05:30 LEAS 170530Z VRB03KT 3500 1500NW -RADZ SCT003 BKN009 16/16 Q1023 TEMPO 2000 RADZ
 
LECO - La Coruna/Alvedr, Spain
Distance from station: ONO 222km
Actualización: 17/08/2018 07:30
Despejado
Despejado
 Viento del N
Viento: N 7 km/h
Temperatura: 16°C
Rocío: 12°C
Humedad: 77%
Barómetro: 1023 hPa
Resumen: Despejado
Visibility: greater than 10 km
2018/08/17 05:30 LECO 170530Z 01004KT 330V050 CAVOK 16/12 Q1023 NOSIG
LEVX - Vigo/Peinador, Spain
Distance from station: O 214km
Actualización: 17/08/2018 07:30
Few Clouds
Few Clouds
 Viento del NE
Viento: NE 9 km/h
Temperatura: 16°C
Rocío: 14°C
Humedad: 88%
Barómetro: 1020 hPa
Clouds: Few Clouds
Visibility: 10 km
Cloud details: Few Clouds 762 m
2018/08/17 05:30 LEVX 170530Z 04005KT 010V090 9999 FEW025 16/14 Q1020 NOSIG